| time (UTC) | temp C | wind direction | speed KPH | gust KPH | rain 1hr cm | rain 24hr cm | rain mn cm | humidity % | barometer mb |
| 20260507230211 | 13 | 350 | 14.5 | 0.0 | 0.00 | 0.00 | 0.00 | 62 | 1015.0 |
| 20260507223217 | 15 | 340 | 12.9 | 0.0 | 0.00 | 0.00 | 0.00 | 58 | 1014.0 |
| 20260507222407 | 15 | 340 | 14.5 | 0.0 | 0.00 | 0.00 | 0.00 | 58 | |
| 20260507220229 | 15 | 340 | 11.3 | 0.0 | 0.00 | 0.00 | 0.00 | 58 | 1014.0 |
| 20260507213216 | 15 | 10 | 4.8 | 0.0 | 0.00 | 0.00 | 0.00 | 62 | 1014.0 |
| 20260507212107 | 15 | 350 | 8.0 | 0.0 | 0.00 | 0.00 | 0.00 | 62 | |
| 20260507210227 | 15 | 0 | 3.2 | 0.0 | 0.00 | 0.00 | 0.00 | 62 | 1014.0 |
| 20260507203216 | 13 | 0 | 3.2 | 0.0 | 0.00 | 0.00 | 0.00 | 71 | 1013.0 |
| 20260507202109 | 13 | 160 | 3.2 | 0.0 | 0.00 | 0.00 | 0.00 | 71 | |
| 20260507200409 | 13 | 190 | 4.8 | 0.0 | 0.00 | 0.00 | 0.00 | 71 | 1013.0 |
| 20260507193217 | 13 | 210 | 4.8 | 0.0 | 0.00 | 0.00 | 0.00 | 71 | 1013.0 |
| 20260507192210 | 13 | 90 | 8.0 | 0.0 | 0.00 | 0.00 | 0.00 | 71 | |
| 20260507190219 | 13 | 90 | 9.7 | 0.0 | 0.00 | 0.00 | 0.00 | 71 | 1013.0 |
| 20260507183224 | 15 | 150 | 12.9 | 0.0 | 0.00 | 0.00 | 0.00 | 62 | 1012.0 |
| 20260507182106 | 16 | 150 | 14.5 | 0.0 | 0.00 | 0.00 | 0.00 | 59 | |
| 20260507180225 | 16 | 0 | 8.0 | 0.0 | 0.00 | 0.00 | 0.00 | 59 | 1012.0 |
| 20260507173224 | 17 | 150 | 12.9 | 0.0 | 0.00 | 0.00 | 0.00 | 48 | 1012.0 |
| 20260507172603 | 17 | 150 | 12.9 | 0.0 | 0.00 | 0.00 | 0.00 | 48 | 1012.0 |
| 20260507172107 | 17 | 160 | 19.3 | 0.0 | 0.00 | 0.00 | 0.00 | 45 | |
| 20260507170227 | 17 | 160 | 22.5 | 0.0 | 0.00 | 0.00 | 0.00 | 45 | 1011.0 |
| 20260507163223 | 20 | 0 | 8.0 | 0.0 | 0.00 | 0.00 | 0.00 | 40 | 1011.0 |
| 20260507162409 | 21 | 270 | 11.3 | 0.0 | 0.00 | 0.00 | 0.00 | 32 | |
| 20260507160220 | 21 | 270 | 11.3 | 0.0 | 0.00 | 0.00 | 0.00 | 32 | 1011.0 |
| 20260507153434 | 20 | 210 | 14.5 | 0.0 | 0.00 | 0.00 | 0.00 | 37 | 1011.0 |
| 20260507153223 | 20 | 210 | 14.5 | 0.0 | 0.00 | 0.00 | 0.00 | 37 | 1011.0 |
| 20260507152108 | 21 | 220 | 14.5 | 0.0 | 0.00 | 0.00 | 0.00 | 32 | |
| 20260507150226 | 22 | 220 | 14.5 | 0.0 | 0.00 | 0.00 | 0.00 | 30 | 1011.0 |
| 20260507143224 | 22 | 210 | 16.1 | 0.0 | 0.00 | 0.00 | 0.00 | 33 | 1011.0 |
| 20260507142109 | 22 | 210 | 19.3 | 0.0 | 0.00 | 0.00 | 0.00 | 35 | |
| 20260507140226 | 21 | 210 | 19.3 | 0.0 | 0.00 | 0.00 | 0.00 | 35 | 1011.0 |
| 20260507133224 | 22 | 220 | 16.1 | 0.0 | 0.00 | 0.00 | 0.00 | 35 | 1011.0 |
| 20260507132208 | 22 | 240 | 14.5 | 32.2 | 0.00 | 0.00 | 0.00 | 35 | |
| 20260507130224 | 22 | 240 | 14.5 | 0.0 | 0.00 | 0.00 | 0.00 | 35 | 1011.0 |
| 20260507123224 | 21 | 230 | 14.5 | 0.0 | 0.00 | 0.00 | 0.00 | 37 | 1011.0 |
| 20260507122108 | 21 | 230 | 19.3 | 0.0 | 0.00 | 0.00 | 0.00 | 37 | |
| 20260507120227 | 21 | 220 | 20.9 | 0.0 | 0.00 | 0.00 | 0.00 | 37 | 1012.0 |
| 20260507113223 | 20 | 210 | 12.9 | 0.0 | 0.00 | 0.00 | 0.00 | 42 | 1012.0 |
| 20260507112124 | 18 | 220 | 14.5 | 0.0 | 0.00 | 0.00 | 0.00 | 45 | |
| 20260507110228 | 18 | 230 | 14.5 | 0.0 | 0.00 | 0.00 | 0.00 | 48 | 1012.0 |
| 20260507103224 | 17 | 220 | 12.9 | 0.0 | 0.00 | 0.00 | 0.00 | 48 | 1012.0 |
| 20260507102307 | 17 | 230 | 14.5 | 0.0 | 0.00 | 0.00 | 0.00 | 52 | |
| 20260507100304 | 17 | 220 | 16.1 | 0.0 | 0.00 | 0.00 | 0.00 | 48 | 1012.0 |
| 20260507093223 | 17 | 220 | 16.1 | 0.0 | 0.00 | 0.00 | 0.00 | 52 | 1012.0 |
| 20260507092107 | 17 | 260 | 14.5 | 0.0 | 0.00 | 0.00 | 0.00 | 55 | |
| 20260507090226 | 17 | 270 | 12.9 | 0.0 | 0.00 | 0.00 | 0.00 | 55 | 1011.0 |
| 20260507083224 | 17 | 260 | 14.5 | 0.0 | 0.00 | 0.00 | 0.00 | 55 | 1011.0 |
| 20260507082106 | 17 | 260 | 14.5 | 0.0 | 0.00 | 0.00 | 0.00 | 55 | |
| 20260507080226 | 17 | 270 | 14.5 | 0.0 | 0.00 | 0.00 | 0.00 | 55 | 1011.0 |
| 20260507073216 | 16 | 270 | 12.9 | 0.0 | 0.00 | 0.00 | 0.00 | 59 | 1011.0 |
| 20260507072107 | 16 | 270 | 19.3 | 0.0 | 0.00 | 0.00 | 0.00 | 59 | |
| 20260507070228 | 16 | 260 | 14.5 | 0.0 | 0.00 | 0.00 | 0.00 | 59 | 1011.0 |
| 20260507063224 | 15 | 250 | 16.1 | 0.0 | 0.00 | 0.00 | 0.00 | 62 | 1011.0 |
| 20260507062107 | 15 | 260 | 19.3 | 0.0 | 0.00 | 0.00 | 0.00 | 67 | |
| 20260507060228 | 15 | 250 | 14.5 | 0.0 | 0.00 | 0.00 | 0.00 | 67 | 1010.0 |
| 20260507053217 | 15 | 250 | 9.7 | 0.0 | 0.00 | 0.00 | 0.00 | 72 | 1010.0 |
| 20260507052107 | 13 | 270 | 11.3 | 0.0 | 0.00 | 0.00 | 0.00 | 76 | |
| 20260507050227 | 13 | 270 | 11.3 | 0.0 | 0.00 | 0.00 | 0.00 | 76 | 1010.0 |
| 20260507043217 | 13 | 260 | 8.0 | 0.0 | 0.00 | 0.00 | 0.00 | 76 | 1009.0 |
| 20260507042309 | 12 | 210 | 8.0 | 0.0 | 0.00 | 0.00 | 0.00 | 82 | |
| 20260507040225 | 12 | 200 | 4.8 | 0.0 | 0.00 | 0.00 | 0.00 | 82 | 1009.0 |
| 20260507033217 | 12 | 270 | 8.0 | 0.0 | 0.00 | 0.00 | 0.00 | 82 | 1008.0 |
| 20260507032106 | 12 | 190 | 3.2 | 0.0 | 0.00 | 0.00 | 0.00 | 81 | |
| 20260507030232 | 12 | 250 | 11.3 | 0.0 | 0.00 | 0.00 | 0.00 | 76 | 1008.0 |
| 20260507023216 | 13 | 230 | 11.3 | 0.0 | 0.00 | 0.00 | 0.00 | 71 | 1008.0 |
| 20260507022105 | 13 | 240 | 8.0 | 0.0 | 0.00 | 0.00 | 0.00 | 71 | |
| 20260507020232 | 13 | 260 | 12.9 | 0.0 | 0.00 | 0.00 | 0.00 | 71 | 1008.0 |
| 20260507013217 | 13 | 250 | 12.9 | 0.0 | 0.00 | 0.00 | 0.00 | 71 | 1008.0 |
| 20260507012206 | 13 | 250 | 14.5 | 0.0 | 0.00 | 0.00 | 0.00 | 71 | |
| 20260507010233 | 13 | 260 | 16.1 | 0.0 | 0.00 | 0.00 | 0.00 | 71 | 1007.0 |
| 20260507003216 | 15 | 230 | 16.1 | 0.0 | 0.00 | 0.00 | 0.00 | 72 | 1006.0 |
| 20260507002106 | 15 | 210 | 14.5 | 0.0 | 0.00 | 0.00 | 0.00 | 67 | |
| 20260507000227 | 15 | 220 | 16.1 | 0.0 | 0.00 | 0.00 | 0.00 | 67 | 1006.0 |
| 20260506233217 | 15 | 170 | 11.3 | 0.0 | 0.00 | 0.00 | 0.00 | 67 | 1006.0 |
| 20260506232107 | 15 | 170 | 11.3 | 0.0 | 0.00 | 0.00 | 0.00 | 67 |